sensor_id;sensor_type;location;lat;lon;timestamp;P1;durP1;ratioP1;P2;durP2;ratioP2
76115;SDS011;64847;45.778;12.802;2023-02-10T00:01:02;18.63;;;14.93;;
76115;SDS011;64847;45.778;12.802;2023-02-10T00:03:29;17.67;;;13.50;;
76115;SDS011;64847;45.778;12.802;2023-02-10T00:05:54;16.30;;;13.63;;
76115;SDS011;64847;45.778;12.802;2023-02-10T00:08:20;15.90;;;13.93;;
76115;SDS011;64847;45.778;12.802;2023-02-10T00:10:45;17.33;;;13.23;;
76115;SDS011;64847;45.778;12.802;2023-02-10T00:13:10;16.33;;;13.80;;
76115;SDS011;64847;45.778;12.802;2023-02-10T00:15:36;18.47;;;15.07;;
76115;SDS011;64847;45.778;12.802;2023-02-10T00:18:02;16.03;;;13.13;;
76115;SDS011;64847;45.778;12.802;2023-02-10T00:20:27;16.60;;;13.13;;
76115;SDS011;64847;45.778;12.802;2023-02-10T00:22:53;18.13;;;14.50;;
76115;SDS011;64847;45.778;12.802;2023-02-10T00:25:18;17.07;;;13.17;;
76115;SDS011;64847;45.778;12.802;2023-02-10T00:27:43;18.10;;;14.33;;
76115;SDS011;64847;45.778;12.802;2023-02-10T00:30:09;23.87;;;15.17;;
76115;SDS011;64847;45.778;12.802;2023-02-10T00:32:35;19.40;;;15.80;;
76115;SDS011;64847;45.778;12.802;2023-02-10T00:35:02;19.50;;;15.30;;
76115;SDS011;64847;45.778;12.802;2023-02-10T00:37:27;18.73;;;15.90;;
76115;SDS011;64847;45.778;12.802;2023-02-10T00:39:53;19.17;;;15.77;;
76115;SDS011;64847;45.778;12.802;2023-02-10T00:42:20;22.13;;;16.30;;
76115;SDS011;64847;45.778;12.802;2023-02-10T00:44:45;22.43;;;16.63;;
76115;SDS011;64847;45.778;12.802;2023-02-10T00:47:11;18.60;;;14.77;;
76115;SDS011;64847;45.778;12.802;2023-02-10T00:49:37;21.63;;;17.53;;
76115;SDS011;64847;45.778;12.802;2023-02-10T00:52:03;20.53;;;16.10;;
76115;SDS011;64847;45.778;12.802;2023-02-10T00:54:28;21.27;;;16.93;;
76115;SDS011;64847;45.778;12.802;2023-02-10T00:56:54;20.17;;;15.90;;
76115;SDS011;64847;45.778;12.802;2023-02-10T00:59:19;20.67;;;15.87;;
76115;SDS011;64847;45.778;12.802;2023-02-10T01:01:45;18.97;;;15.33;;
76115;SDS011;64847;45.778;12.802;2023-02-10T01:06:39;20.33;;;15.77;;
76115;SDS011;64847;45.778;12.802;2023-02-10T01:09:04;20.53;;;15.67;;
76115;SDS011;64847;45.778;12.802;2023-02-10T01:11:30;21.00;;;16.17;;
76115;SDS011;64847;45.778;12.802;2023-02-10T01:13:55;17.60;;;14.73;;
76115;SDS011;64847;45.778;12.802;2023-02-10T01:16:21;17.67;;;14.23;;
76115;SDS011;64847;45.778;12.802;2023-02-10T01:18:46;18.37;;;15.20;;
76115;SDS011;64847;45.778;12.802;2023-02-10T01:21:16;20.10;;;16.03;;
76115;SDS011;64847;45.778;12.802;2023-02-10T01:23:42;18.03;;;15.67;;
76115;SDS011;64847;45.778;12.802;2023-02-10T01:26:08;17.90;;;14.73;;
76115;SDS011;64847;45.778;12.802;2023-02-10T01:28:35;19.00;;;14.63;;
76115;SDS011;64847;45.778;12.802;2023-02-10T01:31:08;19.13;;;14.77;;
76115;SDS011;64847;45.778;12.802;2023-02-10T01:33:35;17.63;;;13.67;;
76115;SDS011;64847;45.778;12.802;2023-02-10T01:36:04;15.27;;;13.40;;
76115;SDS011;64847;45.778;12.802;2023-02-10T01:38:31;17.13;;;14.40;;
76115;SDS011;64847;45.778;12.802;2023-02-10T01:40:56;18.23;;;14.10;;
76115;SDS011;64847;45.778;12.802;2023-02-10T01:43:22;18.80;;;14.83;;
76115;SDS011;64847;45.778;12.802;2023-02-10T01:45:47;18.60;;;15.37;;
76115;SDS011;64847;45.778;12.802;2023-02-10T01:48:13;19.97;;;14.17;;
76115;SDS011;64847;45.778;12.802;2023-02-10T01:50:41;17.83;;;13.80;;
76115;SDS011;64847;45.778;12.802;2023-02-10T01:53:09;19.67;;;14.80;;
76115;SDS011;64847;45.778;12.802;2023-02-10T01:55:35;16.83;;;13.37;;
76115;SDS011;64847;45.778;12.802;2023-02-10T01:58:05;18.47;;;14.73;;
76115;SDS011;64847;45.778;12.802;2023-02-10T02:00:33;18.67;;;14.37;;
76115;SDS011;64847;45.778;12.802;2023-02-10T02:02:59;19.27;;;14.90;;
76115;SDS011;64847;45.778;12.802;2023-02-10T02:05:32;16.30;;;13.27;;
76115;SDS011;64847;45.778;12.802;2023-02-10T02:08:07;16.07;;;13.47;;
76115;SDS011;64847;45.778;12.802;2023-02-10T02:13:47;16.77;;;12.67;;
76115;SDS011;64847;45.778;12.802;2023-02-10T02:22:05;13.00;;;11.20;;
76115;SDS011;64847;45.778;12.802;2023-02-10T02:27:54;13.03;;;10.60;;
76115;SDS011;64847;45.778;12.802;2023-02-10T02:33:04;14.17;;;11.03;;
76115;SDS011;64847;45.778;12.802;2023-02-10T02:35:42;16.33;;;12.47;;
76115;SDS011;64847;45.778;12.802;2023-02-10T02:38:09;16.00;;;12.33;;
76115;SDS011;64847;45.778;12.802;2023-02-10T02:40:35;17.23;;;13.40;;
76115;SDS011;64847;45.778;12.802;2023-02-10T02:43:01;14.37;;;12.07;;
76115;SDS011;64847;45.778;12.802;2023-02-10T02:58:46;12.77;;;10.17;;
76115;SDS011;64847;45.778;12.802;2023-02-10T03:01:19;13.13;;;10.40;;
76115;SDS011;64847;45.778;12.802;2023-02-10T03:03:49;11.57;;;10.37;;
76115;SDS011;64847;45.778;12.802;2023-02-10T03:06:16;16.47;;;12.20;;
76115;SDS011;64847;45.778;12.802;2023-02-10T03:08:41;13.37;;;10.70;;
76115;SDS011;64847;45.778;12.802;2023-02-10T03:11:08;14.10;;;11.00;;
76115;SDS011;64847;45.778;12.802;2023-02-10T03:13:33;15.30;;;11.17;;
76115;SDS011;64847;45.778;12.802;2023-02-10T03:15:59;11.90;;;10.23;;
76115;SDS011;64847;45.778;12.802;2023-02-10T03:18:24;12.40;;;10.73;;
76115;SDS011;64847;45.778;12.802;2023-02-10T03:20:52;15.27;;;11.80;;
76115;SDS011;64847;45.778;12.802;2023-02-10T03:23:17;15.80;;;12.20;;
76115;SDS011;64847;45.778;12.802;2023-02-10T03:25:46;12.10;;;10.80;;
76115;SDS011;64847;45.778;12.802;2023-02-10T03:28:11;15.67;;;12.67;;
76115;SDS011;64847;45.778;12.802;2023-02-10T03:30:37;19.77;;;14.53;;
76115;SDS011;64847;45.778;12.802;2023-02-10T03:33:03;17.53;;;13.93;;
76115;SDS011;64847;45.778;12.802;2023-02-10T03:35:28;17.27;;;13.10;;
76115;SDS011;64847;45.778;12.802;2023-02-10T03:37:54;15.23;;;12.27;;
76115;SDS011;64847;45.778;12.802;2023-02-10T03:40:19;12.17;;;10.23;;
76115;SDS011;64847;45.778;12.802;2023-02-10T03:42:45;12.57;;;11.10;;
76115;SDS011;64847;45.778;12.802;2023-02-10T03:45:10;12.67;;;11.07;;
76115;SDS011;64847;45.778;12.802;2023-02-10T03:47:35;15.67;;;11.43;;
76115;SDS011;64847;45.778;12.802;2023-02-10T03:50:01;15.17;;;11.40;;
76115;SDS011;64847;45.778;12.802;2023-02-10T03:52:26;13.93;;;11.00;;
76115;SDS011;64847;45.778;12.802;2023-02-10T03:54:52;11.27;;;9.27;;
76115;SDS011;64847;45.778;12.802;2023-02-10T03:57:17;12.27;;;9.80;;
76115;SDS011;64847;45.778;12.802;2023-02-10T03:59:43;10.67;;;8.87;;
76115;SDS011;64847;45.778;12.802;2023-02-10T04:02:10;9.53;;;8.53;;
76115;SDS011;64847;45.778;12.802;2023-02-10T04:04:35;10.20;;;8.90;;
76115;SDS011;64847;45.778;12.802;2023-02-10T04:07:01;10.63;;;8.87;;
76115;SDS011;64847;45.778;12.802;2023-02-10T04:09:27;12.30;;;9.03;;
76115;SDS011;64847;45.778;12.802;2023-02-10T04:11:53;12.67;;;10.67;;
76115;SDS011;64847;45.778;12.802;2023-02-10T04:14:18;9.70;;;8.67;;
76115;SDS011;64847;45.778;12.802;2023-02-10T04:16:44;11.03;;;8.93;;
76115;SDS011;64847;45.778;12.802;2023-02-10T04:19:09;9.40;;;8.40;;
76115;SDS011;64847;45.778;12.802;2023-02-10T04:21:35;11.47;;;9.40;;
76115;SDS011;64847;45.778;12.802;2023-02-10T04:24:00;9.80;;;8.63;;
76115;SDS011;64847;45.778;12.802;2023-02-10T04:26:25;11.40;;;9.07;;
76115;SDS011;64847;45.778;12.802;2023-02-10T04:28:51;9.33;;;8.17;;
76115;SDS011;64847;45.778;12.802;2023-02-10T04:31:16;10.80;;;8.23;;
76115;SDS011;64847;45.778;12.802;2023-02-10T04:33:42;11.23;;;8.07;;
76115;SDS011;64847;45.778;12.802;2023-02-10T04:36:08;8.83;;;7.73;;
76115;SDS011;64847;45.778;12.802;2023-02-10T04:38:33;10.37;;;7.33;;
76115;SDS011;64847;45.778;12.802;2023-02-10T04:40:59;8.87;;;7.37;;
76115;SDS011;64847;45.778;12.802;2023-02-10T04:43:24;7.67;;;6.87;;
76115;SDS011;64847;45.778;12.802;2023-02-10T04:45:50;8.10;;;7.30;;
76115;SDS011;64847;45.778;12.802;2023-02-10T04:48:15;9.23;;;7.67;;
76115;SDS011;64847;45.778;12.802;2023-02-10T04:50:41;8.50;;;7.27;;
76115;SDS011;64847;45.778;12.802;2023-02-10T04:53:07;9.03;;;7.30;;
76115;SDS011;64847;45.778;12.802;2023-02-10T04:55:33;8.83;;;7.30;;
76115;SDS011;64847;45.778;12.802;2023-02-10T04:57:58;10.17;;;8.70;;
76115;SDS011;64847;45.778;12.802;2023-02-10T05:00:24;7.90;;;7.10;;
76115;SDS011;64847;45.778;12.802;2023-02-10T05:02:49;10.07;;;8.20;;
76115;SDS011;64847;45.778;12.802;2023-02-10T05:05:15;10.53;;;8.17;;
76115;SDS011;64847;45.778;12.802;2023-02-10T05:07:40;10.40;;;8.03;;
76115;SDS011;64847;45.778;12.802;2023-02-10T05:10:06;8.70;;;7.63;;
76115;SDS011;64847;45.778;12.802;2023-02-10T05:12:31;9.87;;;8.47;;
76115;SDS011;64847;45.778;12.802;2023-02-10T05:14:57;8.47;;;6.93;;
76115;SDS011;64847;45.778;12.802;2023-02-10T05:17:22;9.37;;;8.17;;
76115;SDS011;64847;45.778;12.802;2023-02-10T05:19:50;10.20;;;7.93;;
76115;SDS011;64847;45.778;12.802;2023-02-10T05:22:15;10.77;;;7.80;;
76115;SDS011;64847;45.778;12.802;2023-02-10T05:24:40;8.40;;;7.10;;
76115;SDS011;64847;45.778;12.802;2023-02-10T05:27:06;9.10;;;7.30;;
76115;SDS011;64847;45.778;12.802;2023-02-10T05:29:32;10.10;;;7.13;;
76115;SDS011;64847;45.778;12.802;2023-02-10T05:31:57;7.80;;;6.47;;
76115;SDS011;64847;45.778;12.802;2023-02-10T05:34:22;8.33;;;7.50;;
76115;SDS011;64847;45.778;12.802;2023-02-10T05:36:48;9.13;;;7.17;;
76115;SDS011;64847;45.778;12.802;2023-02-10T05:39:15;10.13;;;6.73;;
76115;SDS011;64847;45.778;12.802;2023-02-10T05:41:50;8.30;;;6.60;;
76115;SDS011;64847;45.778;12.802;2023-02-10T05:44:16;6.93;;;6.23;;
76115;SDS011;64847;45.778;12.802;2023-02-10T05:46:41;7.53;;;6.47;;
76115;SDS011;64847;45.778;12.802;2023-02-10T05:49:07;8.47;;;6.00;;
76115;SDS011;64847;45.778;12.802;2023-02-10T05:51:32;7.00;;;5.83;;
76115;SDS011;64847;45.778;12.802;2023-02-10T05:53:57;6.90;;;6.20;;
76115;SDS011;64847;45.778;12.802;2023-02-10T05:56:23;7.40;;;6.20;;
76115;SDS011;64847;45.778;12.802;2023-02-10T05:58:48;6.10;;;5.50;;
76115;SDS011;64847;45.778;12.802;2023-02-10T06:01:14;6.73;;;5.23;;
76115;SDS011;64847;45.778;12.802;2023-02-10T06:03:40;5.73;;;5.13;;
76115;SDS011;64847;45.778;12.802;2023-02-10T06:06:05;6.20;;;5.60;;
76115;SDS011;64847;45.778;12.802;2023-02-10T06:08:31;6.13;;;5.27;;
76115;SDS011;64847;45.778;12.802;2023-02-10T06:10:56;5.70;;;5.07;;
76115;SDS011;64847;45.778;12.802;2023-02-10T06:13:22;6.37;;;5.77;;
76115;SDS011;64847;45.778;12.802;2023-02-10T06:15:47;6.87;;;5.53;;
76115;SDS011;64847;45.778;12.802;2023-02-10T06:18:12;6.90;;;5.30;;
76115;SDS011;64847;45.778;12.802;2023-02-10T06:20:38;7.10;;;5.27;;
76115;SDS011;64847;45.778;12.802;2023-02-10T06:23:03;5.93;;;5.33;;
76115;SDS011;64847;45.778;12.802;2023-02-10T06:25:29;6.80;;;5.20;;
76115;SDS011;64847;45.778;12.802;2023-02-10T06:27:54;6.07;;;5.47;;
76115;SDS011;64847;45.778;12.802;2023-02-10T06:30:20;6.67;;;5.93;;
76115;SDS011;64847;45.778;12.802;2023-02-10T06:32:45;9.47;;;6.30;;
76115;SDS011;64847;45.778;12.802;2023-02-10T06:35:10;7.77;;;6.37;;
76115;SDS011;64847;45.778;12.802;2023-02-10T06:37:36;6.97;;;6.20;;
76115;SDS011;64847;45.778;12.802;2023-02-10T06:40:05;7.00;;;6.23;;
76115;SDS011;64847;45.778;12.802;2023-02-10T06:42:31;7.90;;;6.37;;
76115;SDS011;64847;45.778;12.802;2023-02-10T06:44:57;8.40;;;7.50;;
76115;SDS011;64847;45.778;12.802;2023-02-10T06:47:22;8.63;;;6.37;;
76115;SDS011;64847;45.778;12.802;2023-02-10T06:49:48;8.23;;;6.70;;
76115;SDS011;64847;45.778;12.802;2023-02-10T06:52:14;9.07;;;6.27;;
76115;SDS011;64847;45.778;12.802;2023-02-10T06:54:39;7.93;;;7.13;;
76115;SDS011;64847;45.778;12.802;2023-02-10T06:57:06;10.50;;;6.93;;
76115;SDS011;64847;45.778;12.802;2023-02-10T06:59:32;8.77;;;6.70;;
76115;SDS011;64847;45.778;12.802;2023-02-10T07:01:57;6.30;;;5.67;;
76115;SDS011;64847;45.778;12.802;2023-02-10T07:04:28;9.20;;;7.63;;
76115;SDS011;64847;45.778;12.802;2023-02-10T07:06:55;7.37;;;6.57;;
76115;SDS011;64847;45.778;12.802;2023-02-10T07:09:20;7.23;;;6.47;;
76115;SDS011;64847;45.778;12.802;2023-02-10T07:11:46;7.10;;;6.33;;
76115;SDS011;64847;45.778;12.802;2023-02-10T07:14:12;7.67;;;6.20;;
76115;SDS011;64847;45.778;12.802;2023-02-10T07:16:37;6.10;;;5.30;;
76115;SDS011;64847;45.778;12.802;2023-02-10T07:19:03;5.07;;;4.57;;
76115;SDS011;64847;45.778;12.802;2023-02-10T07:21:28;5.50;;;5.00;;
76115;SDS011;64847;45.778;12.802;2023-02-10T07:23:53;5.50;;;5.00;;
76115;SDS011;64847;45.778;12.802;2023-02-10T07:26:19;5.27;;;4.77;;
76115;SDS011;64847;45.778;12.802;2023-02-10T07:28:44;5.77;;;5.27;;
76115;SDS011;64847;45.778;12.802;2023-02-10T07:31:10;5.63;;;5.13;;
76115;SDS011;64847;45.778;12.802;2023-02-10T07:33:36;5.43;;;4.93;;
76115;SDS011;64847;45.778;12.802;2023-02-10T07:36:02;6.33;;;5.80;;
76115;SDS011;64847;45.778;12.802;2023-02-10T07:38:30;7.30;;;6.03;;
76115;SDS011;64847;45.778;12.802;2023-02-10T07:40:55;6.67;;;6.07;;
76115;SDS011;64847;45.778;12.802;2023-02-10T07:43:21;6.80;;;6.17;;
76115;SDS011;64847;45.778;12.802;2023-02-10T07:45:46;7.00;;;6.30;;
76115;SDS011;64847;45.778;12.802;2023-02-10T07:48:11;8.07;;;6.57;;
76115;SDS011;64847;45.778;12.802;2023-02-10T07:50:37;6.70;;;6.10;;
76115;SDS011;64847;45.778;12.802;2023-02-10T07:53:03;6.50;;;5.90;;
76115;SDS011;64847;45.778;12.802;2023-02-10T07:55:29;6.40;;;5.80;;
76115;SDS011;64847;45.778;12.802;2023-02-10T07:57:55;6.17;;;5.67;;
76115;SDS011;64847;45.778;12.802;2023-02-10T08:00:20;6.97;;;6.27;;
76115;SDS011;64847;45.778;12.802;2023-02-10T08:02:46;6.93;;;6.33;;
76115;SDS011;64847;45.778;12.802;2023-02-10T08:05:11;6.40;;;5.80;;
76115;SDS011;64847;45.778;12.802;2023-02-10T08:07:36;6.20;;;5.67;;
76115;SDS011;64847;45.778;12.802;2023-02-10T08:10:02;7.03;;;6.43;;
76115;SDS011;64847;45.778;12.802;2023-02-10T08:12:28;6.57;;;5.97;;
76115;SDS011;64847;45.778;12.802;2023-02-10T08:14:54;6.60;;;5.90;;
76115;SDS011;64847;45.778;12.802;2023-02-10T08:17:19;6.47;;;5.87;;
76115;SDS011;64847;45.778;12.802;2023-02-10T08:19:44;6.07;;;5.57;;
76115;SDS011;64847;45.778;12.802;2023-02-10T08:22:10;6.13;;;5.63;;
76115;SDS011;64847;45.778;12.802;2023-02-10T08:24:36;5.80;;;5.30;;
76115;SDS011;64847;45.778;12.802;2023-02-10T08:27:03;5.80;;;5.30;;
76115;SDS011;64847;45.778;12.802;2023-02-10T08:29:29;6.00;;;5.50;;
76115;SDS011;64847;45.778;12.802;2023-02-10T08:31:54;6.10;;;5.60;;
76115;SDS011;64847;45.778;12.802;2023-02-10T08:34:20;5.80;;;5.30;;
76115;SDS011;64847;45.778;12.802;2023-02-10T08:36:47;6.10;;;5.57;;
76115;SDS011;64847;45.778;12.802;2023-02-10T08:39:12;6.00;;;5.50;;
76115;SDS011;64847;45.778;12.802;2023-02-10T08:41:39;6.10;;;5.60;;
76115;SDS011;64847;45.778;12.802;2023-02-10T08:44:05;5.72;;;5.32;;
76115;SDS011;64847;45.778;12.802;2023-02-10T08:46:31;6.20;;;5.80;;
76115;SDS011;64847;45.778;12.802;2023-02-10T08:48:56;6.03;;;5.53;;
76115;SDS011;64847;45.778;12.802;2023-02-10T08:51:25;5.95;;;5.43;;
76115;SDS011;64847;45.778;12.802;2023-02-10T08:53:50;5.72;;;5.13;;
76115;SDS011;64847;45.778;12.802;2023-02-10T08:56:16;5.03;;;4.63;;
76115;SDS011;64847;45.778;12.802;2023-02-10T08:58:43;5.78;;;5.30;;
76115;SDS011;64847;45.778;12.802;2023-02-10T09:01:11;6.03;;;5.53;;
76115;SDS011;64847;45.778;12.802;2023-02-10T09:03:42;6.25;;;5.78;;
76115;SDS011;64847;45.778;12.802;2023-02-10T09:06:15;6.28;;;5.75;;
76115;SDS011;64847;45.778;12.802;2023-02-10T09:08:43;6.10;;;5.60;;
76115;SDS011;64847;45.778;12.802;2023-02-10T09:11:09;6.05;;;5.55;;
76115;SDS011;64847;45.778;12.802;2023-02-10T09:13:35;6.47;;;5.88;;
76115;SDS011;64847;45.778;12.802;2023-02-10T09:16:00;6.18;;;5.78;;
76115;SDS011;64847;45.778;12.802;2023-02-10T09:18:25;6.28;;;5.80;;
76115;SDS011;64847;45.778;12.802;2023-02-10T09:20:51;6.40;;;5.90;;
76115;SDS011;64847;45.778;12.802;2023-02-10T09:23:16;6.38;;;5.88;;
76115;SDS011;64847;45.778;12.802;2023-02-10T09:25:41;6.72;;;6.22;;
76115;SDS011;64847;45.778;12.802;2023-02-10T09:28:07;7.87;;;7.07;;
76115;SDS011;64847;45.778;12.802;2023-02-10T09:30:33;6.68;;;6.18;;
76115;SDS011;64847;45.778;12.802;2023-02-10T09:32:59;6.75;;;6.13;;
76115;SDS011;64847;45.778;12.802;2023-02-10T09:35:25;6.90;;;6.28;;
76115;SDS011;64847;45.778;12.802;2023-02-10T09:37:50;6.53;;;6.03;;
76115;SDS011;64847;45.778;12.802;2023-02-10T09:40:16;7.13;;;6.63;;
76115;SDS011;64847;45.778;12.802;2023-02-10T09:45:22;7.20;;;6.60;;
76115;SDS011;64847;45.778;12.802;2023-02-10T09:47:51;6.95;;;6.35;;
76115;SDS011;64847;45.778;12.802;2023-02-10T09:55:54;7.97;;;7.35;;
76115;SDS011;64847;45.778;12.802;2023-02-10T10:01:15;8.93;;;8.13;;
76115;SDS011;64847;45.778;12.802;2023-02-10T10:03:47;9.10;;;8.23;;
76115;SDS011;64847;45.778;12.802;2023-02-10T10:06:22;9.40;;;8.60;;
76115;SDS011;64847;45.778;12.802;2023-02-10T10:11:41;9.80;;;9.00;;
76115;SDS011;64847;45.778;12.802;2023-02-10T10:14:15;8.77;;;8.07;;
76115;SDS011;64847;45.778;12.802;2023-02-10T10:33:29;8.60;;;7.90;;
76115;SDS011;64847;45.778;12.802;2023-02-10T10:35:58;7.53;;;7.03;;
76115;SDS011;64847;45.778;12.802;2023-02-10T10:38:33;7.85;;;7.28;;
76115;SDS011;64847;45.778;12.802;2023-02-10T10:41:12;8.23;;;7.63;;
76115;SDS011;64847;45.778;12.802;2023-02-10T10:43:48;7.50;;;7.00;;
76115;SDS011;64847;45.778;12.802;2023-02-10T10:48:54;8.25;;;7.60;;
76115;SDS011;64847;45.778;12.802;2023-02-10T10:51:20;8.63;;;8.02;;
76115;SDS011;64847;45.778;12.802;2023-02-10T10:53:53;7.70;;;7.18;;
76115;SDS011;64847;45.778;12.802;2023-02-10T10:59:20;7.30;;;6.80;;
76115;SDS011;64847;45.778;12.802;2023-02-10T11:01:52;8.23;;;7.63;;
76115;SDS011;64847;45.778;12.802;2023-02-10T11:04:21;8.48;;;7.88;;
76115;SDS011;64847;45.778;12.802;2023-02-10T11:06:50;8.20;;;7.50;;
76115;SDS011;64847;45.778;12.802;2023-02-10T11:09:21;7.80;;;7.20;;
76115;SDS011;64847;45.778;12.802;2023-02-10T11:12:12;7.80;;;7.20;;
76115;SDS011;64847;45.778;12.802;2023-02-10T11:14:41;8.00;;;7.40;;
76115;SDS011;64847;45.778;12.802;2023-02-10T11:17:22;8.02;;;7.43;;
76115;SDS011;64847;45.778;12.802;2023-02-10T11:19:57;8.38;;;7.78;;
76115;SDS011;64847;45.778;12.802;2023-02-10T11:22:25;8.68;;;7.95;;
76115;SDS011;64847;45.778;12.802;2023-02-10T11:24:51;9.30;;;8.55;;
76115;SDS011;64847;45.778;12.802;2023-02-10T11:27:22;8.27;;;7.68;;
76115;SDS011;64847;45.778;12.802;2023-02-10T11:29:52;9.35;;;8.65;;
76115;SDS011;64847;45.778;12.802;2023-02-10T11:32:27;9.00;;;8.27;;
76115;SDS011;64847;45.778;12.802;2023-02-10T11:34:55;8.15;;;7.53;;
76115;SDS011;64847;45.778;12.802;2023-02-10T11:37:28;8.40;;;7.60;;
76115;SDS011;64847;45.778;12.802;2023-02-10T11:39:57;8.40;;;7.80;;
76115;SDS011;64847;45.778;12.802;2023-02-10T11:42:33;8.45;;;7.75;;
76115;SDS011;64847;45.778;12.802;2023-02-10T11:45:02;8.60;;;7.97;;
76115;SDS011;64847;45.778;12.802;2023-02-10T11:47:40;8.35;;;7.75;;
76115;SDS011;64847;45.778;12.802;2023-02-10T11:50:18;8.68;;;8.00;;
76115;SDS011;64847;45.778;12.802;2023-02-10T11:52:48;8.35;;;7.75;;
76115;SDS011;64847;45.778;12.802;2023-02-10T11:55:14;8.02;;;7.43;;
76115;SDS011;64847;45.778;12.802;2023-02-10T12:11:42;7.65;;;7.15;;
76115;SDS011;64847;45.778;12.802;2023-02-10T12:14:37;8.65;;;7.55;;
76115;SDS011;64847;45.778;12.802;2023-02-10T12:17:28;9.48;;;7.43;;
76115;SDS011;64847;45.778;12.802;2023-02-10T12:19:59;8.23;;;6.50;;
76115;SDS011;64847;45.778;12.802;2023-02-10T12:25:23;6.25;;;5.82;;
76115;SDS011;64847;45.778;12.802;2023-02-10T12:28:01;6.95;;;6.45;;
76115;SDS011;64847;45.778;12.802;2023-02-10T12:30:51;6.85;;;6.35;;
76115;SDS011;64847;45.778;12.802;2023-02-10T12:46:48;8.02;;;6.95;;
76115;SDS011;64847;45.778;12.802;2023-02-10T12:52:41;7.78;;;7.13;;
76115;SDS011;64847;45.778;12.802;2023-02-10T12:57:44;6.80;;;6.20;;
76115;SDS011;64847;45.778;12.802;2023-02-10T13:00:19;6.50;;;6.00;;
76115;SDS011;64847;45.778;12.802;2023-02-10T13:02:50;6.57;;;6.03;;
76115;SDS011;64847;45.778;12.802;2023-02-10T13:05:23;6.82;;;6.32;;
76115;SDS011;64847;45.778;12.802;2023-02-10T13:07:57;6.47;;;6.05;;
76115;SDS011;64847;45.778;12.802;2023-02-10T13:16:09;6.93;;;6.32;;
76115;SDS011;64847;45.778;12.802;2023-02-10T13:21:43;6.53;;;5.97;;
76115;SDS011;64847;45.778;12.802;2023-02-10T13:24:22;6.22;;;5.72;;
76115;SDS011;64847;45.778;12.802;2023-02-10T13:26:57;6.45;;;5.85;;
76115;SDS011;64847;45.778;12.802;2023-02-10T13:29:54;6.35;;;5.85;;
76115;SDS011;64847;45.778;12.802;2023-02-10T13:35:01;6.47;;;5.97;;
76115;SDS011;64847;45.778;12.802;2023-02-10T13:37:34;5.67;;;5.27;;
76115;SDS011;64847;45.778;12.802;2023-02-10T13:40:13;6.50;;;5.90;;
76115;SDS011;64847;45.778;12.802;2023-02-10T13:42:52;5.53;;;5.13;;
76115;SDS011;64847;45.778;12.802;2023-02-10T13:45:24;6.80;;;6.30;;
76115;SDS011;64847;45.778;12.802;2023-02-10T13:47:52;6.47;;;5.90;;
76115;SDS011;64847;45.778;12.802;2023-02-10T13:53:26;6.20;;;5.70;;
76115;SDS011;64847;45.778;12.802;2023-02-10T14:01:41;6.50;;;6.00;;
76115;SDS011;64847;45.778;12.802;2023-02-10T14:10:30;5.73;;;5.10;;
76115;SDS011;64847;45.778;12.802;2023-02-10T14:12:55;4.97;;;4.68;;
76115;SDS011;64847;45.778;12.802;2023-02-10T14:15:27;5.13;;;4.63;;
76115;SDS011;64847;45.778;12.802;2023-02-10T14:17:55;5.40;;;5.00;;
76115;SDS011;64847;45.778;12.802;2023-02-10T14:20:28;5.50;;;5.10;;
76115;SDS011;64847;45.778;12.802;2023-02-10T14:22:56;5.57;;;5.18;;
76115;SDS011;64847;45.778;12.802;2023-02-10T14:27:54;5.32;;;4.93;;
76115;SDS011;64847;45.778;12.802;2023-02-10T14:30:26;5.50;;;5.07;;
76115;SDS011;64847;45.778;12.802;2023-02-10T14:32:54;6.18;;;5.68;;
76115;SDS011;64847;45.778;12.802;2023-02-10T14:35:24;6.25;;;5.80;;
76115;SDS011;64847;45.778;12.802;2023-02-10T14:37:51;6.50;;;6.03;;
76115;SDS011;64847;45.778;12.802;2023-02-10T14:40:19;5.85;;;5.45;;
76115;SDS011;64847;45.778;12.802;2023-02-10T14:42:47;5.82;;;5.25;;
76115;SDS011;64847;45.778;12.802;2023-02-10T14:45:25;6.85;;;6.30;;
76115;SDS011;64847;45.778;12.802;2023-02-10T14:47:53;6.95;;;6.40;;
76115;SDS011;64847;45.778;12.802;2023-02-10T14:50:29;7.15;;;6.55;;
76115;SDS011;64847;45.778;12.802;2023-02-10T14:52:56;6.93;;;6.22;;
76115;SDS011;64847;45.778;12.802;2023-02-10T14:55:36;7.40;;;6.68;;
76115;SDS011;64847;45.778;12.802;2023-02-10T15:00:35;6.25;;;5.75;;
76115;SDS011;64847;45.778;12.802;2023-02-10T15:03:01;7.03;;;6.45;;
76115;SDS011;64847;45.778;12.802;2023-02-10T15:05:30;7.13;;;6.63;;
76115;SDS011;64847;45.778;12.802;2023-02-10T15:07:59;6.47;;;5.97;;
76115;SDS011;64847;45.778;12.802;2023-02-10T15:10:27;6.60;;;6.00;;
76115;SDS011;64847;45.778;12.802;2023-02-10T15:12:56;10.43;;;9.43;;
76115;SDS011;64847;45.778;12.802;2023-02-10T15:15:25;9.67;;;8.67;;
76115;SDS011;64847;45.778;12.802;2023-02-10T15:18:00;8.67;;;7.87;;
76115;SDS011;64847;45.778;12.802;2023-02-10T15:20:35;8.43;;;7.63;;
76115;SDS011;64847;45.778;12.802;2023-02-10T15:27:56;9.27;;;8.37;;
76115;SDS011;64847;45.778;12.802;2023-02-10T15:30:24;8.77;;;7.97;;
76115;SDS011;64847;45.778;12.802;2023-02-10T15:32:51;9.83;;;8.83;;
76115;SDS011;64847;45.778;12.802;2023-02-10T15:35:17;9.57;;;8.63;;
76115;SDS011;64847;45.778;12.802;2023-02-10T15:37:50;8.63;;;7.73;;
76115;SDS011;64847;45.778;12.802;2023-02-10T15:42:54;8.20;;;7.40;;
76115;SDS011;64847;45.778;12.802;2023-02-10T15:45:24;8.00;;;7.23;;
76115;SDS011;64847;45.778;12.802;2023-02-10T15:47:58;8.70;;;7.90;;
76115;SDS011;64847;45.778;12.802;2023-02-10T15:50:25;7.97;;;7.27;;
76115;SDS011;64847;45.778;12.802;2023-02-10T15:52:51;9.03;;;8.13;;
76115;SDS011;64847;45.778;12.802;2023-02-10T15:55:35;8.53;;;7.60;;
76115;SDS011;64847;45.778;12.802;2023-02-10T15:58:01;9.30;;;8.30;;
76115;SDS011;64847;45.778;12.802;2023-02-10T16:00:34;8.87;;;7.97;;
76115;SDS011;64847;45.778;12.802;2023-02-10T16:03:01;8.90;;;8.10;;
76115;SDS011;64847;45.778;12.802;2023-02-10T16:05:26;8.80;;;7.90;;
76115;SDS011;64847;45.778;12.802;2023-02-10T16:07:52;9.40;;;8.30;;
76115;SDS011;64847;45.778;12.802;2023-02-10T16:10:21;8.87;;;7.93;;
76115;SDS011;64847;45.778;12.802;2023-02-10T16:12:49;10.10;;;8.17;;
76115;SDS011;64847;45.778;12.802;2023-02-10T16:15:15;8.53;;;7.63;;
76115;SDS011;64847;45.778;12.802;2023-02-10T16:17:43;9.57;;;8.10;;
76115;SDS011;64847;45.778;12.802;2023-02-10T16:20:14;9.60;;;8.33;;
76115;SDS011;64847;45.778;12.802;2023-02-10T16:22:49;8.87;;;8.07;;
76115;SDS011;64847;45.778;12.802;2023-02-10T16:25:16;9.33;;;8.40;;
76115;SDS011;64847;45.778;12.802;2023-02-10T16:27:44;9.17;;;8.20;;
76115;SDS011;64847;45.778;12.802;2023-02-10T16:30:14;9.30;;;8.40;;
76115;SDS011;64847;45.778;12.802;2023-02-10T16:32:40;10.67;;;8.40;;
76115;SDS011;64847;45.778;12.802;2023-02-10T16:35:06;9.33;;;8.40;;
76115;SDS011;64847;45.778;12.802;2023-02-10T16:37:33;10.20;;;8.93;;
76115;SDS011;64847;45.778;12.802;2023-02-10T16:39:58;10.17;;;8.47;;
76115;SDS011;64847;45.778;12.802;2023-02-10T16:42:24;9.77;;;8.77;;
76115;SDS011;64847;45.778;12.802;2023-02-10T16:44:49;9.33;;;8.40;;
76115;SDS011;64847;45.778;12.802;2023-02-10T16:47:16;10.37;;;8.83;;
76115;SDS011;64847;45.778;12.802;2023-02-10T16:49:43;10.23;;;8.90;;
76115;SDS011;64847;45.778;12.802;2023-02-10T16:52:08;9.67;;;8.60;;
76115;SDS011;64847;45.778;12.802;2023-02-10T16:54:34;9.53;;;8.60;;